createdAt,value
2022-08-20T00:04:21.280Z,24.13
2022-08-20T00:09:23.137Z,24.08
2022-08-20T00:14:24.730Z,24.03
2022-08-20T00:19:27.096Z,23.97
2022-08-20T00:24:29.545Z,23.95
2022-08-20T00:29:31.672Z,23.91
2022-08-20T00:34:33.300Z,23.75
2022-08-20T00:39:35.364Z,23.81
2022-08-20T00:44:37.262Z,23.85
2022-08-20T00:49:38.968Z,23.79
2022-08-20T00:54:55.305Z,23.80
2022-08-20T00:59:58.816Z,23.78
2022-08-20T01:05:00.749Z,23.81
2022-08-20T01:10:10.348Z,23.84
2022-08-20T01:15:16.752Z,23.88
2022-08-20T01:20:34.808Z,23.87
2022-08-20T01:25:41.412Z,23.75
2022-08-20T01:30:43.097Z,23.52
2022-08-20T01:35:44.863Z,23.47
2022-08-20T01:41:08.108Z,23.48
2022-08-20T01:46:10.407Z,23.51
2022-08-20T01:51:21.766Z,23.52
2022-08-20T01:56:31.070Z,23.54
2022-08-20T02:01:46.204Z,23.48
2022-08-20T02:06:57.674Z,23.55
2022-08-20T02:12:00.805Z,23.55
2022-08-20T02:17:02.701Z,23.55
2022-08-20T02:22:21.789Z,23.61
2022-08-20T02:27:23.718Z,23.64
2022-08-20T02:32:33.831Z,23.62
2022-08-20T02:37:37.578Z,23.54
2022-08-20T02:42:42.665Z,23.49
2022-08-20T02:47:46.048Z,23.47
2022-08-20T02:52:51.533Z,23.52
2022-08-20T02:57:59.961Z,23.58
2022-08-20T03:03:02.235Z,23.66
2022-08-20T03:08:04.287Z,23.71
2022-08-20T03:13:11.311Z,23.71
2022-08-20T03:18:14.083Z,23.67
2022-08-20T03:23:17.307Z,23.60
2022-08-20T03:28:19.574Z,23.59
2022-08-20T03:33:21.678Z,23.57
2022-08-20T03:38:32.384Z,23.55
2022-08-20T03:43:35.298Z,23.55
2022-08-20T03:48:37.277Z,23.58
2022-08-20T03:53:39.008Z,23.67
2022-08-20T03:58:40.630Z,23.67
2022-08-20T04:03:42.312Z,23.70
2022-08-20T04:08:43.899Z,23.65
2022-08-20T04:13:45.485Z,23.63
2022-08-20T04:18:58.632Z,23.56
2022-08-20T04:24:05.785Z,23.57
2022-08-20T04:29:08.122Z,23.61
2022-08-20T04:34:09.748Z,23.50
2022-08-20T04:39:11.339Z,23.49
2022-08-20T04:44:12.980Z,23.36
2022-08-20T04:49:14.578Z,23.27
2022-08-20T04:54:16.209Z,23.30
2022-08-20T04:59:17.929Z,23.35
2022-08-20T05:04:19.509Z,23.40
2022-08-20T05:09:21.141Z,23.36
2022-08-20T05:14:22.722Z,23.41
2022-08-20T05:19:24.444Z,23.38
2022-08-20T05:24:26.445Z,23.45
2022-08-20T05:29:28.648Z,23.33
2022-08-20T05:34:30.364Z,23.33
2022-08-20T05:39:35.503Z,23.39
2022-08-20T05:44:39.451Z,23.30
2022-08-20T05:49:41.140Z,23.16
2022-08-20T05:54:42.729Z,23.19
2022-08-20T05:59:44.368Z,23.15
2022-08-20T06:04:46.087Z,23.37
2022-08-20T06:09:57.904Z,23.55
2022-08-20T06:14:59.656Z,23.75
2022-08-20T06:20:06.516Z,23.75
2022-08-20T06:25:10.309Z,23.93
2022-08-20T06:30:14.204Z,24.01
2022-08-20T06:35:19.770Z,23.95
2022-08-20T06:40:28.540Z,23.96
2022-08-20T06:45:32.793Z,23.76
2022-08-20T06:50:47.142Z,23.79
2022-08-20T06:55:55.374Z,23.93
2022-08-20T07:00:57.036Z,24.02
2022-08-20T07:05:59.402Z,23.91
2022-08-20T07:11:01.733Z,24.10
2022-08-20T07:16:05.116Z,24.26
2022-08-20T07:21:06.809Z,24.42
2022-08-20T07:26:08.637Z,24.30
2022-08-20T07:31:31.353Z,24.61
2022-08-20T07:36:33.309Z,24.33
2022-08-20T07:41:34.960Z,24.31
2022-08-20T07:46:36.572Z,24.18
2022-08-20T07:51:38.241Z,24.41
2022-08-20T07:56:39.836Z,24.79
2022-08-20T08:01:41.998Z,24.94
2022-08-20T08:06:45.361Z,24.93
2022-08-20T08:11:50.362Z,25.10
2022-08-20T08:16:55.250Z,25.34
2022-08-20T08:21:58.717Z,25.41
2022-08-20T08:27:00.472Z,25.73
2022-08-20T08:32:03.670Z,25.68
2022-08-20T08:37:06.170Z,26.04
2022-08-20T08:42:26.078Z,26.60
2022-08-20T08:47:34.672Z,26.95
2022-08-20T08:52:42.860Z,26.98
2022-08-20T08:57:46.641Z,27.19
2022-08-20T09:03:16.058Z,27.05
2022-08-20T09:08:24.381Z,27.18
2022-08-20T09:13:26.018Z,27.60
2022-08-20T09:18:27.976Z,27.66
2022-08-20T09:23:29.641Z,27.64
2022-08-20T09:28:32.225Z,27.45
2022-08-20T09:33:36.787Z,27.35
2022-08-20T09:38:38.364Z,27.45
2022-08-20T09:43:41.060Z,27.53
2022-08-20T09:48:42.682Z,27.62
2022-08-20T09:53:44.416Z,27.35
2022-08-20T09:58:49.481Z,27.03
2022-08-20T10:03:51.297Z,26.95
2022-08-20T10:08:52.900Z,27.10
2022-08-20T10:13:54.478Z,26.84
2022-08-20T10:18:56.968Z,27.15
2022-08-20T10:23:59.395Z,27.51
2022-08-20T10:29:01.003Z,28.07
2022-08-20T10:34:02.797Z,28.07
2022-08-20T10:39:04.593Z,28.05
2022-08-20T10:44:07.636Z,27.88
2022-08-20T10:49:09.315Z,27.70
2022-08-20T10:54:12.519Z,27.76
2022-08-20T10:59:14.474Z,27.92
2022-08-20T11:04:16.135Z,27.89
2022-08-20T11:09:17.773Z,27.75
2022-08-20T11:14:19.387Z,27.71
2022-08-20T11:19:21.192Z,27.60
2022-08-20T11:24:22.900Z,27.56
2022-08-20T11:29:24.913Z,27.46
2022-08-20T11:34:26.629Z,27.66
2022-08-20T11:39:28.399Z,27.77
2022-08-20T11:44:30.019Z,27.95
2022-08-20T11:49:34.491Z,28.23
2022-08-20T11:54:40.493Z,28.33
2022-08-20T11:59:42.368Z,28.34
2022-08-20T12:04:44.331Z,28.11
2022-08-20T12:09:51.107Z,28.29
2022-08-20T12:14:54.676Z,28.40
2022-08-20T12:19:58.849Z,28.41
2022-08-20T12:25:00.549Z,28.53
2022-08-20T12:30:07.660Z,28.49
2022-08-20T12:35:10.942Z,28.62
2022-08-20T12:40:18.225Z,28.59
2022-08-20T12:45:33.261Z,28.76
2022-08-20T12:50:37.576Z,28.60
2022-08-20T12:55:39.308Z,28.37
2022-08-20T13:00:47.481Z,28.00
2022-08-20T13:05:52.659Z,27.86
2022-08-20T13:10:54.289Z,27.98
2022-08-20T13:15:55.856Z,28.10
2022-08-20T13:20:57.453Z,28.23
2022-08-20T13:25:59.071Z,28.29
2022-08-20T13:31:02.145Z,28.29
2022-08-20T13:36:04.038Z,28.52
2022-08-20T13:41:05.760Z,28.60
2022-08-20T13:46:07.416Z,28.43
2022-08-20T13:51:09.037Z,28.45
2022-08-20T13:56:10.760Z,28.45
2022-08-20T14:01:12.505Z,28.26
2022-08-20T14:06:14.127Z,28.09
2022-08-20T14:11:17.756Z,28.05
2022-08-20T14:16:25.430Z,27.95
2022-08-20T14:21:29.692Z,27.87
2022-08-20T14:26:31.247Z,27.76
2022-08-20T14:31:32.868Z,27.74
2022-08-20T14:36:34.481Z,27.80
2022-08-20T14:41:36.055Z,27.74
2022-08-20T14:46:37.614Z,27.61
2022-08-20T14:51:39.213Z,27.37
2022-08-20T14:56:41.214Z,26.74
2022-08-20T15:01:43.085Z,26.55
2022-08-20T15:06:45.784Z,26.32
2022-08-20T15:11:47.953Z,25.82
2022-08-20T15:16:49.568Z,25.39
2022-08-20T15:21:51.300Z,24.64
2022-08-20T15:26:52.937Z,24.38
2022-08-20T15:31:54.537Z,24.21
2022-08-20T15:36:57.664Z,24.29
2022-08-20T15:41:59.316Z,24.49
2022-08-20T15:47:20.111Z,24.52
2022-08-20T15:52:21.928Z,24.76
2022-08-20T15:57:46.697Z,24.22
2022-08-20T16:03:17.568Z,23.99
2022-08-20T16:08:55.954Z,24.12
2022-08-20T16:14:21.691Z,24.05
2022-08-20T16:19:31.877Z,23.77
2022-08-20T16:24:33.618Z,23.83
2022-08-20T16:30:01.937Z,23.50
2022-08-20T16:35:17.862Z,23.72
2022-08-20T16:40:27.815Z,23.69
2022-08-20T16:45:33.729Z,23.82
2022-08-20T16:50:57.210Z,23.32
2022-08-20T16:55:58.846Z,23.60
2022-08-20T17:01:10.489Z,23.36
2022-08-20T17:06:46.826Z,23.32
2022-08-20T17:11:48.516Z,23.48
2022-08-20T17:16:52.468Z,23.24
2022-08-20T17:21:55.719Z,23.20
2022-08-20T17:26:57.548Z,23.28
2022-08-20T17:32:15.411Z,23.16
2022-08-20T17:37:27.516Z,23.17
2022-08-20T17:42:29.158Z,23.00
2022-08-20T17:47:34.943Z,23.22
2022-08-20T17:52:52.687Z,23.00
2022-08-20T17:57:59.484Z,22.88
2022-08-20T18:03:25.107Z,23.01
2022-08-20T18:08:30.767Z,22.56
2022-08-20T18:13:55.393Z,22.84
2022-08-20T18:19:06.140Z,22.94
2022-08-20T18:24:15.639Z,23.04
2022-08-20T18:29:22.150Z,23.28
2022-08-20T18:34:28.501Z,23.17
2022-08-20T18:39:38.266Z,23.20
2022-08-20T18:44:45.682Z,22.96
2022-08-20T18:50:16.057Z,22.92
2022-08-20T18:55:35.995Z,23.07
2022-08-20T19:00:42.134Z,23.02
2022-08-20T19:05:46.673Z,23.09
2022-08-20T19:11:10.915Z,23.01
2022-08-20T19:16:21.760Z,23.02
2022-08-20T19:21:32.066Z,22.81
2022-08-20T19:26:42.842Z,22.93
2022-08-20T19:31:44.640Z,23.01
2022-08-20T19:36:46.626Z,22.98
2022-08-20T19:41:56.114Z,22.76
2022-08-20T19:46:59.809Z,22.70
2022-08-20T19:52:19.767Z,22.67
2022-08-20T19:57:23.381Z,22.78
2022-08-20T20:02:30.369Z,22.81
2022-08-20T20:07:41.992Z,22.98
2022-08-20T20:12:46.747Z,22.82
2022-08-20T20:17:48.695Z,22.69
2022-08-20T20:22:53.454Z,22.32
2022-08-20T20:27:58.748Z,22.50
2022-08-20T20:33:10.710Z,22.53
2022-08-20T20:38:33.015Z,22.75
2022-08-20T20:43:42.188Z,22.77
2022-08-20T20:48:50.833Z,22.73
2022-08-20T20:53:54.975Z,22.87
2022-08-20T20:59:00.171Z,22.54
2022-08-20T21:04:04.311Z,22.60
2022-08-20T21:09:05.923Z,22.59
2022-08-20T21:14:07.492Z,22.72
2022-08-20T21:19:11.163Z,22.57
2022-08-20T21:24:13.228Z,22.61
2022-08-20T21:29:17.781Z,22.60
2022-08-20T21:34:19.465Z,22.45
2022-08-20T21:39:21.076Z,22.40
2022-08-20T21:44:26.759Z,22.42
2022-08-20T21:49:31.638Z,22.37
2022-08-20T21:54:33.617Z,22.55
2022-08-20T21:59:38.020Z,22.47
2022-08-20T22:04:39.742Z,22.47
2022-08-20T22:09:41.536Z,22.39
2022-08-20T22:14:43.776Z,22.35
2022-08-20T22:19:45.454Z,22.39
2022-08-20T22:24:47.324Z,22.31
2022-08-20T22:29:48.993Z,22.39
2022-08-20T22:34:50.669Z,22.30
2022-08-20T22:39:52.318Z,22.20
2022-08-20T22:44:54.003Z,22.10
2022-08-20T22:49:57.361Z,21.82
2022-08-20T22:54:58.997Z,21.64
2022-08-20T23:00:01.179Z,21.94
2022-08-20T23:05:03.281Z,21.88
2022-08-20T23:10:05.208Z,21.91
2022-08-20T23:15:07.780Z,22.02
2022-08-20T23:20:13.932Z,22.04
2022-08-20T23:25:15.845Z,21.91
2022-08-20T23:30:20.121Z,21.60
2022-08-20T23:35:22.672Z,21.73
2022-08-20T23:40:28.936Z,21.62
2022-08-20T23:45:31.567Z,21.52
2022-08-20T23:50:33.688Z,21.71
2022-08-20T23:55:35.532Z,21.76
